createdAt,value
2019-02-23T00:02:31.012Z,18.80
2019-02-23T00:05:35.808Z,18.80
2019-02-23T00:08:40.752Z,18.70
2019-02-23T00:11:45.353Z,18.60
2019-02-23T00:14:50.069Z,18.60
2019-02-23T00:17:56.420Z,18.60
2019-02-23T00:21:02.695Z,18.30
2019-02-23T00:24:07.520Z,18.30
2019-02-23T00:27:12.355Z,18.60
2019-02-23T00:30:16.992Z,18.20
2019-02-23T00:33:21.921Z,18.50
2019-02-23T00:36:26.566Z,18.20
2019-02-23T00:39:31.330Z,18.10
2019-02-23T00:42:36.226Z,18.00
2019-02-23T00:45:40.840Z,17.90
2019-02-23T00:48:45.525Z,18.00
2019-02-23T00:51:51.929Z,18.10
2019-02-23T00:54:56.735Z,17.80
2019-02-23T00:58:01.491Z,17.80
2019-02-23T01:01:07.243Z,17.70
2019-02-23T01:04:12.069Z,17.60
2019-02-23T01:07:18.095Z,17.70
2019-02-23T01:10:22.861Z,17.70
2019-02-23T01:13:27.689Z,17.40
2019-02-23T01:16:32.603Z,17.40
2019-02-23T01:19:47.274Z,17.30
2019-02-23T01:22:43.600Z,17.30
2019-02-23T01:25:48.452Z,17.30
2019-02-23T01:28:53.372Z,17.10
2019-02-23T01:31:58.209Z,17.10
2019-02-23T01:35:02.864Z,17.00
2019-02-23T01:38:07.561Z,16.80
2019-02-23T01:41:12.369Z,16.80
2019-02-23T01:44:17.001Z,16.80
2019-02-23T01:47:22.646Z,16.70
2019-02-23T01:50:27.085Z,16.60
2019-02-23T01:53:31.831Z,16.70
2019-02-23T01:56:36.768Z,16.50
2019-02-23T01:59:41.447Z,16.50
2019-02-23T02:02:46.408Z,16.40
2019-02-23T02:05:51.126Z,16.30
2019-02-23T02:08:57.917Z,16.30
2019-02-23T02:12:02.726Z,16.30
2019-02-23T02:15:09.610Z,16.20
2019-02-23T02:18:14.345Z,16.00
2019-02-23T02:21:19.192Z,16.00
2019-02-23T02:24:23.842Z,16.00
2019-02-23T02:27:28.742Z,16.00
2019-02-23T02:30:33.578Z,15.80
2019-02-23T02:34:25.251Z,15.80
2019-02-23T02:37:29.999Z,15.70
2019-02-23T02:40:34.706Z,15.70
2019-02-23T02:43:40.588Z,15.60
2019-02-23T02:46:45.442Z,15.50
2019-02-23T02:49:50.236Z,15.50
2019-02-23T02:52:55.182Z,15.50
2019-02-23T02:55:59.884Z,15.30
2019-02-23T02:59:04.628Z,15.80
2019-02-23T03:02:09.566Z,15.30
2019-02-23T03:05:14.507Z,15.20
2019-02-23T03:08:19.315Z,15.20
2019-02-23T03:11:23.951Z,15.20
2019-02-23T03:14:31.643Z,15.10
2019-02-23T03:17:37.705Z,15.10
2019-02-23T03:20:42.540Z,14.90
2019-02-23T03:23:47.259Z,14.80
2019-02-23T03:26:52.101Z,14.90
2019-02-23T03:29:56.922Z,14.70
2019-02-23T03:33:01.540Z,14.80
2019-02-23T03:36:06.438Z,14.40
2019-02-23T03:39:11.199Z,14.60
2019-02-23T03:42:16.058Z,14.60
2019-02-23T03:45:20.785Z,14.60
2019-02-23T03:48:26.500Z,14.60
2019-02-23T03:51:31.142Z,14.60
2019-02-23T03:54:35.979Z,14.40
2019-02-23T03:57:40.842Z,14.40
2019-02-23T04:00:45.532Z,14.40
2019-02-23T04:03:52.361Z,14.30
2019-02-23T04:06:58.174Z,14.20
2019-02-23T04:10:03.047Z,14.20
2019-02-23T04:13:07.707Z,14.20
2019-02-23T04:16:12.367Z,14.20
2019-02-23T04:19:17.211Z,13.90
2019-02-23T04:22:21.804Z,14.00
2019-02-23T04:25:26.424Z,13.90
2019-02-23T04:28:31.252Z,13.90
2019-02-23T04:31:35.996Z,13.90
2019-02-23T04:34:40.810Z,13.70
2019-02-23T04:37:45.449Z,13.80
2019-02-23T04:40:51.149Z,13.60
2019-02-23T04:43:55.740Z,13.50
2019-02-23T04:47:00.463Z,13.50
2019-02-23T04:50:05.293Z,13.50
2019-02-23T04:53:10.112Z,13.50
2019-02-23T04:56:14.838Z,13.40
2019-02-23T04:59:19.680Z,14.00
2019-02-23T05:02:24.394Z,13.30
2019-02-23T05:05:30.429Z,13.70
2019-02-23T05:08:35.277Z,13.60
2019-02-23T05:11:39.799Z,14.30
2019-02-23T05:14:44.335Z,13.80
2019-02-23T05:17:49.050Z,13.60
2019-02-23T05:20:53.603Z,13.80
2019-02-23T05:23:58.098Z,13.80
2019-02-23T05:27:02.820Z,13.80
2019-02-23T05:30:08.586Z,13.80
2019-02-23T05:33:13.523Z,13.80
2019-02-23T05:36:18.447Z,13.60
2019-02-23T05:39:22.977Z,13.00
2019-02-23T05:42:27.801Z,13.30
2019-02-23T05:45:32.532Z,13.40
2019-02-23T05:48:37.269Z,13.50
2019-02-23T05:51:42.097Z,13.50
2019-02-23T05:54:47.028Z,13.10
2019-02-23T05:57:51.737Z,12.60
2019-02-23T06:00:56.279Z,12.80
2019-02-23T06:04:01.113Z,12.80
2019-02-23T06:07:05.939Z,12.80
2019-02-23T06:10:11.287Z,13.40
2019-02-23T06:13:15.909Z,12.80
2019-02-23T06:16:20.761Z,13.10
2019-02-23T06:19:25.681Z,13.20
2019-02-23T06:22:30.396Z,12.90
2019-02-23T06:25:36.197Z,12.80
2019-02-23T06:28:40.976Z,13.00
2019-02-23T06:31:45.902Z,13.10
2019-02-23T06:34:50.761Z,13.10
2019-02-23T06:37:55.575Z,13.60
2019-02-23T06:41:00.304Z,14.10
2019-02-23T06:44:04.913Z,14.30
2019-02-23T06:47:09.755Z,13.40
2019-02-23T06:50:14.684Z,12.60
2019-02-23T06:53:19.529Z,12.70
2019-02-23T06:56:24.375Z,13.00
2019-02-23T06:59:29.175Z,13.20
2019-02-23T07:02:33.926Z,13.70
2019-02-23T07:05:38.543Z,13.20
2019-02-23T07:08:43.381Z,13.40
2019-02-23T07:11:49.408Z,13.30
2019-02-23T07:14:54.056Z,13.20
2019-02-23T07:17:58.778Z,12.90
2019-02-23T07:21:03.605Z,13.00
2019-02-23T07:24:08.338Z,13.20
2019-02-23T07:27:13.175Z,13.40
2019-02-23T07:30:17.951Z,13.20
2019-02-23T07:33:32.448Z,13.80
2019-02-23T07:36:30.307Z,13.20
2019-02-23T07:39:34.925Z,13.70
2019-02-23T07:42:39.788Z,13.40
2019-02-23T07:45:44.610Z,13.30
2019-02-23T07:48:50.480Z,13.30
2019-02-23T07:51:56.120Z,13.10
2019-02-23T07:55:00.839Z,13.10
2019-02-23T07:58:05.226Z,13.20
2019-02-23T08:01:09.628Z,13.10
2019-02-23T08:04:14.078Z,13.20
2019-02-23T08:07:18.465Z,13.30
2019-02-23T08:10:23.129Z,13.40
2019-02-23T08:13:27.875Z,13.20
2019-02-23T08:16:32.611Z,13.20
2019-02-23T08:19:37.257Z,13.20
2019-02-23T08:22:41.952Z,13.10
2019-02-23T08:25:46.603Z,12.90
2019-02-23T08:28:51.113Z,12.70
2019-02-23T08:31:55.933Z,13.00
2019-02-23T08:35:00.859Z,12.90
2019-02-23T08:38:05.589Z,13.50
2019-02-23T08:41:10.456Z,12.70
2019-02-23T08:44:16.159Z,12.80
2019-02-23T08:47:21.052Z,12.60
2019-02-23T08:50:25.744Z,13.00
2019-02-23T08:53:30.364Z,13.00
2019-02-23T08:56:35.078Z,13.00
2019-02-23T08:59:39.838Z,13.00
2019-02-23T09:02:44.653Z,12.80
2019-02-23T09:05:49.383Z,12.80
2019-02-23T09:08:54.313Z,13.20
2019-02-23T09:11:59.040Z,13.00
2019-02-23T09:15:03.665Z,13.30
2019-02-23T09:18:08.600Z,13.50
2019-02-23T09:21:13.428Z,12.50
2019-02-23T09:24:18.292Z,12.40
2019-02-23T09:27:23.085Z,12.90
2019-02-23T09:30:27.831Z,12.70
2019-02-23T09:33:32.556Z,12.90
2019-02-23T09:36:37.392Z,12.90
2019-02-23T09:39:42.206Z,12.90
2019-02-23T09:42:47.148Z,13.00
2019-02-23T09:45:51.973Z,12.50
2019-02-23T09:48:56.816Z,12.70
2019-02-23T09:52:01.382Z,12.60
2019-02-23T09:55:06.159Z,13.00
2019-02-23T09:58:10.666Z,12.30
2019-02-23T10:01:15.300Z,12.60
2019-02-23T10:04:20.017Z,12.80
2019-02-23T10:07:24.757Z,12.90
2019-02-23T10:10:29.604Z,12.50
2019-02-23T10:13:34.434Z,12.80
2019-02-23T10:16:39.145Z,12.30
2019-02-23T10:19:43.983Z,12.30
2019-02-23T10:22:48.817Z,12.20
2019-02-23T10:25:53.569Z,11.80
2019-02-23T10:28:58.459Z,11.70
2019-02-23T10:32:03.110Z,12.00
2019-02-23T10:35:09.016Z,12.00
2019-02-23T10:38:13.796Z,12.00
2019-02-23T10:41:18.401Z,12.00
2019-02-23T10:44:23.149Z,12.40
2019-02-23T10:47:27.966Z,12.40
2019-02-23T10:50:32.909Z,12.40
2019-02-23T10:53:37.740Z,12.10
2019-02-23T10:56:42.548Z,12.10
2019-02-23T10:59:47.171Z,11.90
2019-02-23T11:02:51.831Z,11.70
2019-02-23T11:05:56.651Z,11.70
2019-02-23T11:09:01.613Z,11.70
2019-02-23T11:12:06.398Z,11.80
2019-02-23T11:15:11.837Z,11.80
2019-02-23T11:18:16.470Z,11.70
2019-02-23T11:21:21.089Z,11.90
2019-02-23T11:24:25.711Z,11.70
2019-02-23T11:27:30.460Z,11.50
2019-02-23T11:30:35.185Z,11.60
2019-02-23T11:33:39.945Z,11.70
2019-02-23T11:36:44.729Z,11.60
2019-02-23T11:39:49.513Z,11.40
2019-02-23T11:42:54.393Z,11.40
2019-02-23T11:45:59.334Z,11.40
2019-02-23T11:49:04.158Z,11.50
2019-02-23T11:52:09.000Z,11.50
2019-02-23T11:55:13.713Z,11.40
2019-02-23T11:58:18.561Z,11.30
2019-02-23T12:01:23.413Z,11.40
2019-02-23T12:04:28.099Z,11.70
2019-02-23T12:07:32.724Z,11.50
2019-02-23T12:10:37.363Z,11.40
2019-02-23T12:13:41.885Z,11.90
2019-02-23T12:16:46.643Z,11.70
2019-02-23T12:19:51.347Z,11.90
2019-02-23T12:22:56.302Z,12.10
2019-02-23T12:26:01.217Z,11.50
2019-02-23T12:29:05.947Z,11.90
2019-02-23T12:32:10.661Z,12.70
2019-02-23T12:35:16.333Z,12.00
2019-02-23T12:38:21.144Z,11.80
2019-02-23T12:41:25.989Z,11.70
2019-02-23T12:44:30.748Z,11.40
2019-02-23T12:47:35.520Z,11.70
2019-02-23T12:50:40.503Z,11.70
2019-02-23T12:53:45.025Z,11.40
2019-02-23T12:56:49.745Z,11.40
2019-02-23T12:59:54.436Z,11.50
2019-02-23T13:02:59.182Z,11.60
2019-02-23T13:06:04.040Z,11.30
2019-02-23T13:09:26.646Z,11.80
2019-02-23T13:12:37.197Z,11.50
2019-02-23T13:15:49.602Z,11.60
2019-02-23T13:19:41.434Z,11.40
2019-02-23T13:23:07.937Z,11.40
2019-02-23T13:26:54.626Z,11.30
2019-02-23T13:30:16.870Z,11.10
2019-02-23T13:34:20.649Z,10.90
2019-02-23T13:38:14.901Z,10.80
2019-02-23T13:41:29.224Z,10.80
2019-02-23T13:45:11.133Z,10.80
2019-02-23T13:48:37.139Z,10.80
2019-02-23T13:52:15.039Z,10.60
2019-02-23T13:56:18.710Z,10.50
2019-02-23T14:00:13.647Z,10.70
2019-02-23T14:03:58.024Z,10.30
2019-02-23T14:07:30.479Z,10.30
2019-02-23T14:11:11.245Z,10.30
2019-02-23T14:14:24.057Z,10.20
2019-02-23T14:18:13.706Z,10.10
2019-02-23T14:22:05.293Z,10.50
2019-02-23T14:25:59.880Z,9.40
2019-02-23T14:29:43.199Z,9.80
2019-02-23T14:33:29.782Z,9.90
2019-02-23T14:37:05.304Z,9.80
2019-02-23T14:40:43.599Z,9.60
2019-02-23T14:44:04.754Z,9.80
2019-02-23T14:47:52.042Z,9.90
2019-02-23T14:51:46.887Z,9.60
2019-02-23T14:55:05.851Z,9.70
2019-02-23T14:58:57.227Z,9.60
2019-02-23T15:03:01.938Z,9.60
2019-02-23T15:06:43.101Z,10.00
2019-02-23T15:10:16.239Z,10.00
2019-02-23T15:13:55.197Z,9.60
2019-02-23T15:17:43.584Z,9.40
2019-02-23T15:21:21.387Z,9.40
2019-02-23T15:25:19.453Z,9.40
2019-02-23T15:29:00.997Z,9.30
2019-02-23T15:32:42.185Z,9.40
2019-02-23T15:36:21.640Z,9.30
2019-02-23T15:39:50.423Z,9.40
2019-02-23T15:43:50.281Z,9.10
2019-02-23T15:47:23.983Z,9.10
2019-02-23T15:53:44.170Z,9.10
2019-02-23T15:56:49.094Z,9.10
2019-02-23T15:59:53.736Z,9.10
2019-02-23T16:02:58.654Z,9.20
2019-02-23T16:06:03.377Z,9.10
2019-02-23T16:09:08.108Z,9.10
2019-02-23T16:12:34.542Z,9.00
2019-02-23T16:15:41.181Z,9.00
2019-02-23T16:18:45.933Z,9.00
2019-02-23T16:21:52.994Z,8.90
2019-02-23T16:24:57.016Z,9.00
2019-02-23T16:28:01.874Z,9.00
2019-02-23T16:31:06.598Z,9.20
2019-02-23T16:34:11.433Z,9.20
2019-02-23T16:37:16.256Z,8.90
2019-02-23T16:40:21.080Z,8.70
2019-02-23T16:43:25.812Z,8.70
2019-02-23T16:46:32.351Z,8.60
2019-02-23T16:49:37.016Z,8.70
2019-02-23T16:52:41.838Z,8.60
2019-02-23T16:55:51.006Z,8.80
2019-02-23T16:58:53.105Z,8.60
2019-02-23T17:01:57.672Z,8.60
2019-02-23T17:05:02.490Z,8.60
2019-02-23T17:08:07.427Z,8.60
2019-02-23T17:11:12.238Z,8.50
2019-02-23T17:14:17.012Z,8.50
2019-02-23T17:17:21.802Z,8.40
2019-02-23T17:20:26.756Z,8.40
2019-02-23T17:23:31.481Z,8.30
2019-02-23T17:26:36.921Z,8.40
2019-02-23T17:29:41.874Z,8.30
2019-02-23T17:32:46.675Z,8.30
2019-02-23T17:35:51.544Z,8.40
2019-02-23T17:38:56.233Z,8.10
2019-02-23T17:42:01.067Z,8.20
2019-02-23T17:45:05.794Z,8.20
2019-02-23T17:48:10.833Z,8.20
2019-02-23T17:51:15.655Z,8.10
2019-02-23T17:54:20.402Z,8.10
2019-02-23T17:57:25.296Z,8.10
2019-02-23T18:00:30.074Z,8.20
2019-02-23T18:03:34.712Z,8.10
2019-02-23T18:06:39.607Z,8.00
2019-02-23T18:09:44.236Z,8.00
2019-02-23T18:12:49.168Z,7.90
2019-02-23T18:15:53.910Z,8.10
2019-02-23T18:18:58.716Z,7.90
2019-02-23T18:22:03.673Z,7.90
2019-02-23T18:25:08.647Z,7.90
2019-02-23T18:28:14.545Z,7.90
2019-02-23T18:31:19.312Z,7.80
2019-02-23T18:34:24.113Z,7.90
2019-02-23T18:37:28.745Z,7.70
2019-02-23T18:40:33.475Z,7.70
2019-02-23T18:43:38.280Z,7.90
2019-02-23T18:46:42.913Z,7.80
2019-02-23T18:49:47.677Z,7.70
2019-02-23T18:52:52.617Z,7.80
2019-02-23T18:55:57.237Z,7.60
2019-02-23T18:59:02.072Z,7.70
2019-02-23T19:02:06.879Z,7.60
2019-02-23T19:05:12.420Z,7.70
2019-02-23T19:08:17.357Z,7.60
2019-02-23T19:11:21.975Z,8.20
2019-02-23T19:14:26.916Z,7.70
2019-02-23T19:17:31.746Z,7.60
2019-02-23T19:20:36.587Z,7.60
2019-02-23T19:23:41.508Z,7.60
2019-02-23T19:26:46.346Z,7.60
2019-02-23T19:29:51.299Z,7.60
2019-02-23T19:32:56.211Z,7.50
2019-02-23T19:36:01.236Z,7.50
2019-02-23T19:39:06.202Z,7.60
2019-02-23T19:42:10.826Z,7.40
2019-02-23T19:45:16.912Z,7.40
2019-02-23T19:48:21.577Z,7.40
2019-02-23T19:51:26.396Z,7.40
2019-02-23T19:54:31.057Z,7.40
2019-02-23T19:57:35.751Z,7.40
2019-02-23T20:00:40.472Z,7.40
2019-02-23T20:03:47.519Z,7.40
2019-02-23T20:06:52.295Z,7.30
2019-02-23T20:09:57.132Z,7.50
2019-02-23T20:13:03.569Z,7.30
2019-02-23T20:16:08.543Z,7.30
2019-02-23T20:19:14.447Z,7.20
2019-02-23T20:22:19.330Z,7.30
2019-02-23T20:25:24.180Z,7.20
2019-02-23T20:28:28.977Z,7.20
2019-02-23T20:31:33.857Z,7.10
2019-02-23T20:34:38.466Z,7.20
2019-02-23T20:37:43.271Z,7.10
2019-02-23T20:40:48.163Z,7.10
2019-02-23T20:43:52.812Z,7.10
2019-02-23T20:46:57.659Z,7.00
2019-02-23T20:50:03.960Z,7.00
2019-02-23T20:53:08.859Z,7.00
2019-02-23T20:56:13.785Z,7.00
2019-02-23T20:59:18.494Z,6.90
2019-02-23T21:02:23.132Z,7.60
2019-02-23T21:05:27.667Z,6.90
2019-02-23T21:08:32.490Z,6.90
2019-02-23T21:11:37.328Z,6.90
2019-02-23T21:14:42.155Z,6.90
2019-02-23T21:17:46.937Z,6.90
2019-02-23T21:20:51.748Z,7.40
2019-02-23T21:23:56.543Z,6.80
2019-02-23T21:27:01.381Z,6.80
2019-02-23T21:30:06.606Z,6.90
2019-02-23T21:33:11.343Z,6.80
2019-02-23T21:36:15.853Z,6.80
2019-02-23T21:39:22.724Z,6.90
2019-02-23T21:42:27.457Z,6.80
2019-02-23T21:45:33.396Z,6.70
2019-02-23T21:48:38.046Z,7.40
2019-02-23T21:51:42.999Z,6.80
2019-02-23T21:54:47.526Z,7.00
2019-02-23T21:57:52.311Z,6.80
2019-02-23T22:00:58.648Z,6.70
2019-02-23T22:04:03.527Z,6.70
2019-02-23T22:07:08.278Z,6.80
2019-02-23T22:10:12.889Z,6.70
2019-02-23T22:13:17.722Z,6.70
2019-02-23T22:16:22.640Z,6.80
2019-02-23T22:19:28.351Z,6.80
2019-02-23T22:22:33.022Z,6.60
2019-02-23T22:25:37.657Z,6.70
2019-02-23T22:28:43.828Z,6.70
2019-02-23T22:31:48.547Z,7.10
2019-02-23T22:34:53.369Z,6.60
2019-02-23T22:37:59.893Z,6.80
2019-02-23T22:41:05.774Z,6.60
2019-02-23T22:44:10.510Z,6.60
2019-02-23T22:47:16.243Z,6.60
2019-02-23T22:50:20.996Z,6.60
2019-02-23T22:53:25.823Z,6.60
2019-02-23T22:56:32.400Z,7.00
2019-02-23T22:59:37.315Z,6.60
2019-02-23T23:02:41.870Z,6.60
2019-02-23T23:05:46.673Z,6.50
2019-02-23T23:08:51.523Z,6.50
2019-02-23T23:11:56.485Z,6.40
2019-02-23T23:15:03.267Z,6.70
2019-02-23T23:18:07.748Z,6.40
2019-02-23T23:21:12.672Z,6.40
2019-02-23T23:24:17.304Z,6.40
2019-02-23T23:27:22.031Z,6.40
2019-02-23T23:30:26.777Z,6.40
2019-02-23T23:33:31.391Z,7.00
2019-02-23T23:36:35.997Z,6.50
2019-02-23T23:39:40.640Z,6.40
2019-02-23T23:42:45.369Z,6.40
2019-02-23T23:45:50.203Z,6.40
2019-02-23T23:48:54.812Z,6.40
2019-02-23T23:51:59.461Z,6.40
2019-02-23T23:55:04.284Z,6.30
2019-02-23T23:58:10.149Z,6.30
